CheckWX is a tool to help pilots better visualize weather data.  It is not intended as a substitute for an official pre-flight weather briefing.

11:15:38 UTC

KELD TAF
South Arkansas Regional at Goodwin Field Airport
El Dorado, Arkansas, USA
KELD 170525Z 1706/1806 VRB03KT P6SM SKC FM171600 09005KT P6SM FEW050 FM171800 12007KT P6SM SCT060 SCT100 FM180200 14003KT P6SM FEW060

Sep-17@
06:00 UTC

Sep-17 @ 06:00 UTC

Sep-17@
16:00 UTC

Sep-17 @ 16:00 UTC

KELD 170525Z 1706/1806 VRB03KT P6SM SKC
Wind
  • Variable at 3 KTS
Cloud Levels
  • Clear skies

Sep-17@
16:00 UTC

Sep-17 @ 16:00 UTC

Sep-17@
18:00 UTC

Sep-17 @ 18:00 UTC

FM171600 09005KT P6SM FEW050

From

From Standard forecast or significant change

Wind
  • 090° at 5 KTS
Cloud Levels
  • Few at 5,000' AGL

Sep-17@
18:00 UTC

Sep-17 @ 18:00 UTC

Sep-18@
02:00 UTC

Sep-18 @ 02:00 UTC

FM171800 12007KT P6SM SCT060 SCT100

From

From Standard forecast or significant change

Wind
  • 120° at 7 KTS
Cloud Levels
  • Scattered at 6,000' AGL
  • Scattered at 10,000' AGL

Sep-18@
02:00 UTC

Sep-18 @ 02:00 UTC

Sep-18@
06:00 UTC

Sep-18 @ 06:00 UTC

FM180200 14003KT P6SM FEW060

From

From Standard forecast or significant change

Wind
  • 140° at 3 KTS
Cloud Levels
  • Few at 6,000' AGL